KARV/ARV METAR and TAF weather

Enter ICAO airport designator
Station Type Date Time Source
KARV METAR 2018/12/12 23:15 UTC NOAA

KARV 122315Z AUTO 00000KT 7SM OVC007 00/M01 A2979 RMK AO2 T10011013


Station Type Date Time Source
KARV Decoded METAR 2018/12/12 23:15 UTC NOAA

Minocqua/Woodruff, Lakeland Airport/Noble F. Lee Memorial Field, WI, United States (KARV) 45-56N 089-44W
Dec 12, 2018 - 06:15 PM EST / 2018.12.12 2315 UTC
Wind: Calm:0
Visibility: 7 mile(s):0
Sky conditions: overcast
Temperature: 31.8 F (-0.1 C)
Dew Point: 29.7 F (-1.3 C)
Relative Humidity: 91%
Pressure (altimeter): 29.79 in. Hg (1008 hPa)
ob: KARV 122315Z AUTO 00000KT 7SM OVC007 00/M01 A2979 RMK AO2 T10011013
cycle: 23

Station Type Date Time Source
KARV TAF UTC NOAA

Error!


Example: see airport list